Terminal Aerodrome Forecast
Issued by NWS Amarillo, TX

Current Version | Previous Version | Text Only | Print | Product List | Glossary Off
Versions: 1 2 3 4 5 6 7 8 9 10 11 12 13 14 15 16 17 18 19

000
FTUS44 KAMA 212300
TAFAMA
TAF
KAMA 212320Z 2200/2224 16016G26KT P6SM FEW070
     FM220200 17012KT P6SM BKN200
     FM221600 16010KT P6SM FEW080=

USA.gov is the U.S. government's official web portal to all federal, state and local government web resources and services.